Friday, May 25, 2018, 8:45 AM EDT
Back to Local

KORE, Orange, Orange Municipal Airport

Location: Orange, MA, United States Lat: 42.572
Local Time: 8:45 AM EDT (12:45 GMT) Lon: -72.278
Time Zone: US/Eastern Elev: 554 ft

Show me the last for .
Show Decoded

2018-05-25 07:52 METAR KORE 251152Z AUTO 00000KT 10SM CLR 15/12 A2999 RMK AO2 SLP157 T01500117
                 10150 20083 58004 =
2018-05-25 06:52 METAR KORE 251052Z AUTO 00000KT 10SM CLR 11/10 A3001 RMK AO2 SLP161 T01060100 =
2018-05-25 05:52 METAR KORE 250952Z AUTO 00000KT 9SM CLR 08/08 A3001 RMK AO2 SLP163 T00830083 =
2018-05-25 04:52 METAR KORE 250852Z AUTO 00000KT 10SM CLR 09/09 A3001 RMK AO2 SLP161 T00890089
                 56012 =
2018-05-25 03:52 METAR KORE 250752Z AUTO 00000KT 10SM CLR 09/09 A3001 RMK AO2 SLP163 T00890089 =
2018-05-25 02:52 METAR KORE 250652Z AUTO 00000KT 10SM CLR 10/09 A3003 RMK AO2 SLP168 T01000094 =
2018-05-25 01:52 METAR KORE 250552Z AUTO 00000KT 10SM CLR 10/09 A3004 RMK AO2 SLP173 T01000089
                 10211 20100 58008 =
2018-05-25 00:52 METAR KORE 250452Z AUTO 13003KT 10SM CLR 12/10 A3006 RMK AO2 SLP177 T01170100
                 402610072 =
2018-05-24 23:52 METAR KORE 250352Z AUTO VRB03KT 10SM CLR 16/11 A3007 RMK AO2 SLP180 T01560106 =
2018-05-24 22:52 METAR KORE 250252Z AUTO 18007KT 10SM CLR 17/09 A3007 RMK AO2 SLP180 T01670089
                 51007 =
2018-05-24 21:52 METAR KORE 250152Z AUTO 00000KT 10SM CLR 14/09 A3006 RMK AO2 SLP179 T01440089 =
2018-05-24 20:52 METAR KORE 250052Z AUTO 00000KT 10SM CLR 18/08 A3005 RMK AO2 SLP176 T01780083 =
2018-05-24 19:52 METAR KORE 242352Z AUTO 25004KT 10SM CLR 22/06 A3004 RMK AO2 SLP172 T02170061
                 10261 20217 55005 =
2018-05-24 18:52 METAR KORE 242252Z AUTO 00000KT 10SM CLR 26/02 A3004 RMK AO2 SLP170 T02560022 =
2018-05-24 17:52 METAR KORE 242152Z AUTO 25003KT 10SM CLR 26/01 A3005 RMK AO2 SLP175 T02560006 =
2018-05-24 16:52 METAR KORE 242052Z AUTO VRB03KT 10SM CLR 26/01 A3006 RMK AO2 SLP178 T02560006
                 56014 =
2018-05-24 15:52 METAR KORE 241952Z AUTO 36011KT 10SM CLR 26/00 A3007 RMK AO2 SLP183 T02560000 =
2018-05-24 14:52 METAR KORE 241852Z AUTO 32010G20KT 10SM CLR 24/M01 A3009 RMK AO2 SLP188
                 T02441011 =
2018-05-24 13:52 METAR KORE 241752Z AUTO 36013G18KT 10SM CLR 24/M03 A3010 RMK AO2 SLP193
                 T02441033 10244 20172 58009 =
2018-05-24 12:52 METAR KORE 241652Z AUTO 32014G22KT 10SM CLR 24/M04 A3011 RMK AO2 SLP197
                 T02391044 =
2018-05-24 11:52 METAR KORE 241552Z AUTO 29009G15KT 10SM CLR 22/M03 A3013 RMK AO2 SLP202
                 T02221028 =
2018-05-24 10:52 METAR KORE 241452Z AUTO 30011KT 10SM CLR 21/M04 A3013 RMK AO2 SLP201 T02061039
                 50004 =
2018-05-24 09:52 METAR KORE 241352Z AUTO 33009G16KT 10SM CLR 19/M03 A3013 RMK AO2 SLP201
                 T01891033 =
2018-05-24 08:52 METAR KORE 241252Z AUTO 01012KT 10SM FEW120 18/M02 A3013 RMK AO2 SLP201
                 T01831022 =

Support USWX by starting your Amazon purchase here.